sensor_id;sensor_type;location;lat;lon;timestamp;temperature;humidity
1700;DHT22;847;48.058;7.810;2023-04-21T00:01:47;6.50;91.40
1700;DHT22;847;48.058;7.810;2023-04-21T00:04:13;6.40;92.20
1700;DHT22;847;48.058;7.810;2023-04-21T00:06:43;6.20;92.40
1700;DHT22;847;48.058;7.810;2023-04-21T00:09:10;6.00;92.60
1700;DHT22;847;48.058;7.810;2023-04-21T00:11:37;5.80;93.10
1700;DHT22;847;48.058;7.810;2023-04-21T00:14:03;5.60;93.80
1700;DHT22;847;48.058;7.810;2023-04-21T00:16:30;5.60;94.10
1700;DHT22;847;48.058;7.810;2023-04-21T00:18:57;5.50;94.30
1700;DHT22;847;48.058;7.810;2023-04-21T00:21:24;5.60;95.00
1700;DHT22;847;48.058;7.810;2023-04-21T00:23:52;6.00;93.80
1700;DHT22;847;48.058;7.810;2023-04-21T00:26:19;5.90;93.50
1700;DHT22;847;48.058;7.810;2023-04-21T00:28:47;5.80;93.50
1700;DHT22;847;48.058;7.810;2023-04-21T00:31:13;5.80;93.90
1700;DHT22;847;48.058;7.810;2023-04-21T00:33:40;5.70;93.00
1700;DHT22;847;48.058;7.810;2023-04-21T00:36:07;5.60;93.90
1700;DHT22;847;48.058;7.810;2023-04-21T00:38:34;5.90;93.10
1700;DHT22;847;48.058;7.810;2023-04-21T00:41:02;5.80;92.90
1700;DHT22;847;48.058;7.810;2023-04-21T00:43:29;5.60;93.10
1700;DHT22;847;48.058;7.810;2023-04-21T00:45:55;5.50;93.60
1700;DHT22;847;48.058;7.810;2023-04-21T00:48:22;5.40;93.80
1700;DHT22;847;48.058;7.810;2023-04-21T00:50:49;5.30;94.20
1700;DHT22;847;48.058;7.810;2023-04-21T00:53:16;5.20;95.10
1700;DHT22;847;48.058;7.810;2023-04-21T00:55:43;5.20;95.00
1700;DHT22;847;48.058;7.810;2023-04-21T00:58:12;5.30;95.30
1700;DHT22;847;48.058;7.810;2023-04-21T01:00:39;5.30;95.40
1700;DHT22;847;48.058;7.810;2023-04-21T01:03:07;5.30;94.90
1700;DHT22;847;48.058;7.810;2023-04-21T01:05:34;5.20;95.10
1700;DHT22;847;48.058;7.810;2023-04-21T01:08:01;5.20;95.40
1700;DHT22;847;48.058;7.810;2023-04-21T01:10:28;5.30;95.10
1700;DHT22;847;48.058;7.810;2023-04-21T01:12:55;5.20;95.20
1700;DHT22;847;48.058;7.810;2023-04-21T01:15:23;5.10;95.40
1700;DHT22;847;48.058;7.810;2023-04-21T01:17:51;4.90;95.60
1700;DHT22;847;48.058;7.810;2023-04-21T01:20:18;4.80;95.90
1700;DHT22;847;48.058;7.810;2023-04-21T01:22:46;4.80;96.00
1700;DHT22;847;48.058;7.810;2023-04-21T01:25:15;4.60;95.90
1700;DHT22;847;48.058;7.810;2023-04-21T01:27:43;4.70;96.50
1700;DHT22;847;48.058;7.810;2023-04-21T01:30:10;4.80;96.20
1700;DHT22;847;48.058;7.810;2023-04-21T01:32:36;4.80;96.00
1700;DHT22;847;48.058;7.810;2023-04-21T01:35:04;4.80;95.80
1700;DHT22;847;48.058;7.810;2023-04-21T01:37:31;4.80;95.50
1700;DHT22;847;48.058;7.810;2023-04-21T01:40:02;4.70;95.80
1700;DHT22;847;48.058;7.810;2023-04-21T01:42:30;4.60;96.00
1700;DHT22;847;48.058;7.810;2023-04-21T01:44:57;4.60;96.10
1700;DHT22;847;48.058;7.810;2023-04-21T01:47:24;4.50;96.40
1700;DHT22;847;48.058;7.810;2023-04-21T01:49:51;4.40;96.70
1700;DHT22;847;48.058;7.810;2023-04-21T01:52:18;4.40;96.30
1700;DHT22;847;48.058;7.810;2023-04-21T01:54:46;4.40;96.70
1700;DHT22;847;48.058;7.810;2023-04-21T01:57:14;4.40;96.60
1700;DHT22;847;48.058;7.810;2023-04-21T01:59:41;4.30;96.70
1700;DHT22;847;48.058;7.810;2023-04-21T02:02:08;4.30;96.90
1700;DHT22;847;48.058;7.810;2023-04-21T02:04:35;4.10;96.60
1700;DHT22;847;48.058;7.810;2023-04-21T02:07:02;4.10;97.20
1700;DHT22;847;48.058;7.810;2023-04-21T02:09:28;4.10;96.40
1700;DHT22;847;48.058;7.810;2023-04-21T02:11:55;4.30;96.60
1700;DHT22;847;48.058;7.810;2023-04-21T02:14:24;4.30;95.60
1700;DHT22;847;48.058;7.810;2023-04-21T02:16:51;4.50;96.00
1700;DHT22;847;48.058;7.810;2023-04-21T02:19:18;4.60;95.00
1700;DHT22;847;48.058;7.810;2023-04-21T02:21:44;4.40;94.50
1700;DHT22;847;48.058;7.810;2023-04-21T02:24:11;4.40;95.00
1700;DHT22;847;48.058;7.810;2023-04-21T02:26:38;4.40;95.40
1700;DHT22;847;48.058;7.810;2023-04-21T02:29:05;4.20;95.40
1700;DHT22;847;48.058;7.810;2023-04-21T02:31:33;4.20;95.80
1700;DHT22;847;48.058;7.810;2023-04-21T02:34:00;4.10;96.40
1700;DHT22;847;48.058;7.810;2023-04-21T02:36:26;4.00;96.50
1700;DHT22;847;48.058;7.810;2023-04-21T02:38:53;4.00;96.80
1700;DHT22;847;48.058;7.810;2023-04-21T02:41:20;4.10;96.20
1700;DHT22;847;48.058;7.810;2023-04-21T02:43:47;4.10;96.30
1700;DHT22;847;48.058;7.810;2023-04-21T02:46:14;4.10;96.70
1700;DHT22;847;48.058;7.810;2023-04-21T02:48:42;4.00;96.60
1700;DHT22;847;48.058;7.810;2023-04-21T02:51:11;3.90;96.90
1700;DHT22;847;48.058;7.810;2023-04-21T02:53:38;3.80;97.10
1700;DHT22;847;48.058;7.810;2023-04-21T02:56:06;3.80;97.10
1700;DHT22;847;48.058;7.810;2023-04-21T02:58:33;3.70;97.00
1700;DHT22;847;48.058;7.810;2023-04-21T03:01:00;3.60;97.40
1700;DHT22;847;48.058;7.810;2023-04-21T03:03:28;3.70;97.20
1700;DHT22;847;48.058;7.810;2023-04-21T03:06:00;3.70;96.90
1700;DHT22;847;48.058;7.810;2023-04-21T03:08:27;3.90;96.50
1700;DHT22;847;48.058;7.810;2023-04-21T03:10:54;3.90;96.60
1700;DHT22;847;48.058;7.810;2023-04-21T03:13:20;3.90;96.50
1700;DHT22;847;48.058;7.810;2023-04-21T03:15:48;3.90;96.80
1700;DHT22;847;48.058;7.810;2023-04-21T03:18:14;3.70;96.90
1700;DHT22;847;48.058;7.810;2023-04-21T03:20:42;3.80;97.50
1700;DHT22;847;48.058;7.810;2023-04-21T03:23:10;4.00;96.90
1700;DHT22;847;48.058;7.810;2023-04-21T03:25:37;3.80;97.10
1700;DHT22;847;48.058;7.810;2023-04-21T03:28:04;3.80;97.40
1700;DHT22;847;48.058;7.810;2023-04-21T03:30:31;3.80;97.60
1700;DHT22;847;48.058;7.810;2023-04-21T03:32:58;3.80;97.40
1700;DHT22;847;48.058;7.810;2023-04-21T03:35:25;3.90;97.10
1700;DHT22;847;48.058;7.810;2023-04-21T03:37:51;3.90;96.90
1700;DHT22;847;48.058;7.810;2023-04-21T03:40:20;3.90;96.30
1700;DHT22;847;48.058;7.810;2023-04-21T03:42:46;3.80;96.20
1700;DHT22;847;48.058;7.810;2023-04-21T03:45:13;3.70;96.30
1700;DHT22;847;48.058;7.810;2023-04-21T03:47:40;3.80;97.00
1700;DHT22;847;48.058;7.810;2023-04-21T03:50:07;3.90;96.80
1700;DHT22;847;48.058;7.810;2023-04-21T03:52:34;3.90;96.60
1700;DHT22;847;48.058;7.810;2023-04-21T03:55:00;3.90;96.20
1700;DHT22;847;48.058;7.810;2023-04-21T03:57:29;3.80;96.20
1700;DHT22;847;48.058;7.810;2023-04-21T03:59:55;3.70;96.60
1700;DHT22;847;48.058;7.810;2023-04-21T04:02:22;3.60;97.00
1700;DHT22;847;48.058;7.810;2023-04-21T04:04:49;3.60;97.50
1700;DHT22;847;48.058;7.810;2023-04-21T04:07:15;3.70;97.10
1700;DHT22;847;48.058;7.810;2023-04-21T04:09:42;3.70;96.80
1700;DHT22;847;48.058;7.810;2023-04-21T04:12:09;3.70;97.40
1700;DHT22;847;48.058;7.810;2023-04-21T04:14:37;3.70;97.40
1700;DHT22;847;48.058;7.810;2023-04-21T04:17:04;3.70;97.20
1700;DHT22;847;48.058;7.810;2023-04-21T04:19:31;3.60;97.30
1700;DHT22;847;48.058;7.810;2023-04-21T04:21:58;3.60;97.20
1700;DHT22;847;48.058;7.810;2023-04-21T04:24:25;3.60;97.60
1700;DHT22;847;48.058;7.810;2023-04-21T04:26:52;3.50;97.70
1700;DHT22;847;48.058;7.810;2023-04-21T04:29:19;3.40;98.10
1700;DHT22;847;48.058;7.810;2023-04-21T04:31:49;3.40;97.90
1700;DHT22;847;48.058;7.810;2023-04-21T04:34:16;3.50;97.80
1700;DHT22;847;48.058;7.810;2023-04-21T04:36:43;3.40;98.00
1700;DHT22;847;48.058;7.810;2023-04-21T04:39:09;3.30;98.30
1700;DHT22;847;48.058;7.810;2023-04-21T04:41:37;3.40;98.20
1700;DHT22;847;48.058;7.810;2023-04-21T04:44:04;3.40;98.30
1700;DHT22;847;48.058;7.810;2023-04-21T04:46:30;3.50;98.00
1700;DHT22;847;48.058;7.810;2023-04-21T04:48:58;3.30;97.50
1700;DHT22;847;48.058;7.810;2023-04-21T04:51:25;3.40;98.00
1700;DHT22;847;48.058;7.810;2023-04-21T04:53:52;3.50;97.40
1700;DHT22;847;48.058;7.810;2023-04-21T04:56:19;3.60;97.50
1700;DHT22;847;48.058;7.810;2023-04-21T04:58:46;3.60;97.60
1700;DHT22;847;48.058;7.810;2023-04-21T05:01:13;3.60;97.40
1700;DHT22;847;48.058;7.810;2023-04-21T05:03:40;3.60;97.10
1700;DHT22;847;48.058;7.810;2023-04-21T05:06:09;3.60;97.30
1700;DHT22;847;48.058;7.810;2023-04-21T05:08:36;3.60;97.40
1700;DHT22;847;48.058;7.810;2023-04-21T05:11:04;3.60;97.60
1700;DHT22;847;48.058;7.810;2023-04-21T05:13:31;3.50;98.00
1700;DHT22;847;48.058;7.810;2023-04-21T05:15:58;3.50;97.90
1700;DHT22;847;48.058;7.810;2023-04-21T05:18:26;3.50;98.30
1700;DHT22;847;48.058;7.810;2023-04-21T05:20:53;3.50;98.30
1700;DHT22;847;48.058;7.810;2023-04-21T05:23:22;3.70;99.00
1700;DHT22;847;48.058;7.810;2023-04-21T05:25:49;3.70;99.00
1700;DHT22;847;48.058;7.810;2023-04-21T05:28:24;3.70;98.90
1700;DHT22;847;48.058;7.810;2023-04-21T05:30:54;3.80;99.00
1700;DHT22;847;48.058;7.810;2023-04-21T05:33:21;3.90;98.90
1700;DHT22;847;48.058;7.810;2023-04-21T05:35:47;3.90;99.00
1700;DHT22;847;48.058;7.810;2023-04-21T05:38:14;3.90;99.00
1700;DHT22;847;48.058;7.810;2023-04-21T05:40:42;3.90;99.00
1700;DHT22;847;48.058;7.810;2023-04-21T05:43:09;4.00;99.00
1700;DHT22;847;48.058;7.810;2023-04-21T05:45:38;4.00;99.00
1700;DHT22;847;48.058;7.810;2023-04-21T05:48:05;4.10;99.00
1700;DHT22;847;48.058;7.810;2023-04-21T05:50:32;4.10;99.00
1700;DHT22;847;48.058;7.810;2023-04-21T05:53:00;4.10;99.00
1700;DHT22;847;48.058;7.810;2023-04-21T05:55:28;4.20;99.00
1700;DHT22;847;48.058;7.810;2023-04-21T05:57:56;4.20;99.00
1700;DHT22;847;48.058;7.810;2023-04-21T06:00:23;4.30;99.00
1700;DHT22;847;48.058;7.810;2023-04-21T06:02:50;4.40;99.00
1700;DHT22;847;48.058;7.810;2023-04-21T06:05:17;4.50;99.00
1700;DHT22;847;48.058;7.810;2023-04-21T06:07:44;4.50;99.00
1700;DHT22;847;48.058;7.810;2023-04-21T06:10:12;4.70;99.00
1700;DHT22;847;48.058;7.810;2023-04-21T06:12:39;4.70;99.00
1700;DHT22;847;48.058;7.810;2023-04-21T06:15:08;4.90;99.00
1700;DHT22;847;48.058;7.810;2023-04-21T06:17:35;4.90;99.00
1700;DHT22;847;48.058;7.810;2023-04-21T06:20:02;5.00;99.00
1700;DHT22;847;48.058;7.810;2023-04-21T06:22:29;5.00;99.00
1700;DHT22;847;48.058;7.810;2023-04-21T06:24:57;5.00;99.00
1700;DHT22;847;48.058;7.810;2023-04-21T06:27:24;5.10;99.00
1700;DHT22;847;48.058;7.810;2023-04-21T06:29:53;5.10;99.00
1700;DHT22;847;48.058;7.810;2023-04-21T06:32:22;5.10;99.00
1700;DHT22;847;48.058;7.810;2023-04-21T06:34:49;5.20;99.00
1700;DHT22;847;48.058;7.810;2023-04-21T06:37:15;5.30;99.00
1700;DHT22;847;48.058;7.810;2023-04-21T06:39:42;5.40;99.00
1700;DHT22;847;48.058;7.810;2023-04-21T06:42:09;5.40;99.00
1700;DHT22;847;48.058;7.810;2023-04-21T06:44:36;5.50;99.00
1700;DHT22;847;48.058;7.810;2023-04-21T06:47:03;5.50;99.00
1700;DHT22;847;48.058;7.810;2023-04-21T06:49:31;5.60;99.00
1700;DHT22;847;48.058;7.810;2023-04-21T06:51:59;5.60;99.00
1700;DHT22;847;48.058;7.810;2023-04-21T06:54:25;5.70;99.00
1700;DHT22;847;48.058;7.810;2023-04-21T06:56:52;5.80;99.00
1700;DHT22;847;48.058;7.810;2023-04-21T06:59:19;5.70;99.00
1700;DHT22;847;48.058;7.810;2023-04-21T07:01:46;5.80;99.00
1700;DHT22;847;48.058;7.810;2023-04-21T07:04:13;5.90;99.00
1700;DHT22;847;48.058;7.810;2023-04-21T07:06:41;5.90;99.00
1700;DHT22;847;48.058;7.810;2023-04-21T07:09:09;6.00;99.00
1700;DHT22;847;48.058;7.810;2023-04-21T07:11:35;6.10;99.00
1700;DHT22;847;48.058;7.810;2023-04-21T07:14:02;6.10;99.00
1700;DHT22;847;48.058;7.810;2023-04-21T07:16:29;6.00;98.90
1700;DHT22;847;48.058;7.810;2023-04-21T07:18:56;6.10;99.00
1700;DHT22;847;48.058;7.810;2023-04-21T07:21:23;6.20;99.00
1700;DHT22;847;48.058;7.810;2023-04-21T07:23:51;6.20;99.00
1700;DHT22;847;48.058;7.810;2023-04-21T07:26:18;6.30;99.00
1700;DHT22;847;48.058;7.810;2023-04-21T07:28:44;6.30;99.00
1700;DHT22;847;48.058;7.810;2023-04-21T07:31:11;6.40;99.00
1700;DHT22;847;48.058;7.810;2023-04-21T07:33:38;6.40;98.70
1700;DHT22;847;48.058;7.810;2023-04-21T07:36:05;6.50;98.50
1700;DHT22;847;48.058;7.810;2023-04-21T07:38:32;6.50;98.50
1700;DHT22;847;48.058;7.810;2023-04-21T07:41:00;6.60;99.00
1700;DHT22;847;48.058;7.810;2023-04-21T07:43:27;6.70;99.00
1700;DHT22;847;48.058;7.810;2023-04-21T07:45:56;6.70;99.00
1700;DHT22;847;48.058;7.810;2023-04-21T07:48:22;6.70;99.00
1700;DHT22;847;48.058;7.810;2023-04-21T07:50:49;6.80;98.70
1700;DHT22;847;48.058;7.810;2023-04-21T07:53:17;6.90;97.50
1700;DHT22;847;48.058;7.810;2023-04-21T07:55:44;6.90;97.60
1700;DHT22;847;48.058;7.810;2023-04-21T07:58:12;6.90;96.90
1700;DHT22;847;48.058;7.810;2023-04-21T08:00:39;7.00;97.40
1700;DHT22;847;48.058;7.810;2023-04-21T08:03:06;7.00;96.90
1700;DHT22;847;48.058;7.810;2023-04-21T08:05:33;7.10;97.30
1700;DHT22;847;48.058;7.810;2023-04-21T08:08:00;7.10;96.80
1700;DHT22;847;48.058;7.810;2023-04-21T08:10:27;7.20;96.50
1700;DHT22;847;48.058;7.810;2023-04-21T08:12:54;7.20;96.40
1700;DHT22;847;48.058;7.810;2023-04-21T08:15:22;7.30;96.40
1700;DHT22;847;48.058;7.810;2023-04-21T08:17:49;7.30;96.30
1700;DHT22;847;48.058;7.810;2023-04-21T08:20:16;7.40;97.60
1700;DHT22;847;48.058;7.810;2023-04-21T08:22:42;7.60;97.50
1700;DHT22;847;48.058;7.810;2023-04-21T08:25:09;7.60;96.70
1700;DHT22;847;48.058;7.810;2023-04-21T08:27:37;7.60;96.70
1700;DHT22;847;48.058;7.810;2023-04-21T08:30:05;7.60;96.60
1700;DHT22;847;48.058;7.810;2023-04-21T08:32:34;7.70;96.40
1700;DHT22;847;48.058;7.810;2023-04-21T08:35:00;7.70;96.60
1700;DHT22;847;48.058;7.810;2023-04-21T08:37:27;7.70;96.70
1700;DHT22;847;48.058;7.810;2023-04-21T08:39:54;7.90;96.40
1700;DHT22;847;48.058;7.810;2023-04-21T08:42:21;7.90;96.70
1700;DHT22;847;48.058;7.810;2023-04-21T08:44:48;7.90;96.50
1700;DHT22;847;48.058;7.810;2023-04-21T08:47:15;8.00;96.90
1700;DHT22;847;48.058;7.810;2023-04-21T08:49:43;8.00;96.40
1700;DHT22;847;48.058;7.810;2023-04-21T08:52:11;8.10;96.00
1700;DHT22;847;48.058;7.810;2023-04-21T08:54:39;8.30;97.00
1700;DHT22;847;48.058;7.810;2023-04-21T08:57:06;8.40;96.70
1700;DHT22;847;48.058;7.810;2023-04-21T08:59:33;8.50;95.10
1700;DHT22;847;48.058;7.810;2023-04-21T09:02:07;8.60;94.20
1700;DHT22;847;48.058;7.810;2023-04-21T09:04:37;8.60;94.40
1700;DHT22;847;48.058;7.810;2023-04-21T09:07:05;8.60;94.70
1700;DHT22;847;48.058;7.810;2023-04-21T09:09:34;8.80;96.00
1700;DHT22;847;48.058;7.810;2023-04-21T09:12:17;8.90;95.70
1700;DHT22;847;48.058;7.810;2023-04-21T09:14:43;9.10;94.80
1700;DHT22;847;48.058;7.810;2023-04-21T09:17:10;9.10;94.70
1700;DHT22;847;48.058;7.810;2023-04-21T09:19:37;9.20;94.40
1700;DHT22;847;48.058;7.810;2023-04-21T09:22:05;9.30;94.10
1700;DHT22;847;48.058;7.810;2023-04-21T09:24:32;9.30;93.60
1700;DHT22;847;48.058;7.810;2023-04-21T09:27:01;9.30;94.50
1700;DHT22;847;48.058;7.810;2023-04-21T09:29:29;9.40;94.10
1700;DHT22;847;48.058;7.810;2023-04-21T09:31:55;9.40;94.40
1700;DHT22;847;48.058;7.810;2023-04-21T09:34:24;9.50;93.70
1700;DHT22;847;48.058;7.810;2023-04-21T09:36:58;9.60;91.50
1700;DHT22;847;48.058;7.810;2023-04-21T09:39:27;9.60;92.20
1700;DHT22;847;48.058;7.810;2023-04-21T09:41:54;9.80;93.50
1700;DHT22;847;48.058;7.810;2023-04-21T09:44:22;9.90;91.80
1700;DHT22;847;48.058;7.810;2023-04-21T09:46:49;9.90;91.00
1700;DHT22;847;48.058;7.810;2023-04-21T09:49:17;9.90;90.90
1700;DHT22;847;48.058;7.810;2023-04-21T09:51:44;10.10;90.80
1700;DHT22;847;48.058;7.810;2023-04-21T09:54:15;10.10;89.90
1700;DHT22;847;48.058;7.810;2023-04-21T09:56:47;10.30;90.50
1700;DHT22;847;48.058;7.810;2023-04-21T09:59:19;10.40;89.30
1700;DHT22;847;48.058;7.810;2023-04-21T10:01:50;10.40;89.00
1700;DHT22;847;48.058;7.810;2023-04-21T10:04:19;10.40;89.80
1700;DHT22;847;48.058;7.810;2023-04-21T10:06:52;10.50;89.30
1700;DHT22;847;48.058;7.810;2023-04-21T10:09:22;10.50;89.10
1700;DHT22;847;48.058;7.810;2023-04-21T10:11:53;10.50;89.10
1700;DHT22;847;48.058;7.810;2023-04-21T10:14:20;10.50;89.50
1700;DHT22;847;48.058;7.810;2023-04-21T10:16:55;10.50;90.00
1700;DHT22;847;48.058;7.810;2023-04-21T10:19:23;10.80;91.60
1700;DHT22;847;48.058;7.810;2023-04-21T10:21:50;11.00;90.10
1700;DHT22;847;48.058;7.810;2023-04-21T10:24:17;11.00;91.30
1700;DHT22;847;48.058;7.810;2023-04-21T10:26:44;11.10;91.70
1700;DHT22;847;48.058;7.810;2023-04-21T10:29:13;11.30;91.50
1700;DHT22;847;48.058;7.810;2023-04-21T10:31:50;11.20;89.90
1700;DHT22;847;48.058;7.810;2023-04-21T10:34:27;11.30;92.40
1700;DHT22;847;48.058;7.810;2023-04-21T10:37:11;11.30;89.90
1700;DHT22;847;48.058;7.810;2023-04-21T10:39:45;11.30;90.60
1700;DHT22;847;48.058;7.810;2023-04-21T10:42:33;11.40;89.70
1700;DHT22;847;48.058;7.810;2023-04-21T10:45:12;11.50;89.30
1700;DHT22;847;48.058;7.810;2023-04-21T10:47:43;11.50;90.20
1700;DHT22;847;48.058;7.810;2023-04-21T10:50:23;11.50;90.30
1700;DHT22;847;48.058;7.810;2023-04-21T10:52:57;11.60;90.20
1700;DHT22;847;48.058;7.810;2023-04-21T10:55:28;11.80;88.90
1700;DHT22;847;48.058;7.810;2023-04-21T10:57:55;11.90;89.20
1700;DHT22;847;48.058;7.810;2023-04-21T11:00:25;11.80;87.50
1700;DHT22;847;48.058;7.810;2023-04-21T11:02:54;11.80;88.70
1700;DHT22;847;48.058;7.810;2023-04-21T11:05:29;11.90;88.50
1700;DHT22;847;48.058;7.810;2023-04-21T11:08:06;11.80;88.20
1700;DHT22;847;48.058;7.810;2023-04-21T11:10:48;11.90;88.80
1700;DHT22;847;48.058;7.810;2023-04-21T11:13:15;12.00;89.00
1700;DHT22;847;48.058;7.810;2023-04-21T11:15:56;12.10;88.50
1700;DHT22;847;48.058;7.810;2023-04-21T11:18:32;12.40;88.70
1700;DHT22;847;48.058;7.810;2023-04-21T11:21:06;12.50;88.40
1700;DHT22;847;48.058;7.810;2023-04-21T11:23:33;12.60;88.80
1700;DHT22;847;48.058;7.810;2023-04-21T11:26:00;12.60;87.80
1700;DHT22;847;48.058;7.810;2023-04-21T11:28:27;12.70;88.50
1700;DHT22;847;48.058;7.810;2023-04-21T11:30:55;12.60;88.40
1700;DHT22;847;48.058;7.810;2023-04-21T11:33:22;12.70;89.20
1700;DHT22;847;48.058;7.810;2023-04-21T11:35:49;12.80;90.20
1700;DHT22;847;48.058;7.810;2023-04-21T11:38:23;12.90;88.50
1700;DHT22;847;48.058;7.810;2023-04-21T11:40:50;12.90;89.50
1700;DHT22;847;48.058;7.810;2023-04-21T11:43:20;12.90;88.80
1700;DHT22;847;48.058;7.810;2023-04-21T11:45:48;12.90;88.50
1700;DHT22;847;48.058;7.810;2023-04-21T11:48:17;12.90;88.60
1700;DHT22;847;48.058;7.810;2023-04-21T11:50:48;12.90;89.00
1700;DHT22;847;48.058;7.810;2023-04-21T11:53:15;12.80;89.00
1700;DHT22;847;48.058;7.810;2023-04-21T11:55:43;12.80;89.10
1700;DHT22;847;48.058;7.810;2023-04-21T11:58:11;13.00;89.10
1700;DHT22;847;48.058;7.810;2023-04-21T12:00:42;13.00;90.90
1700;DHT22;847;48.058;7.810;2023-04-21T12:03:10;13.30;91.00
1700;DHT22;847;48.058;7.810;2023-04-21T12:05:39;13.20;88.30
1700;DHT22;847;48.058;7.810;2023-04-21T12:08:12;13.30;89.00
1700;DHT22;847;48.058;7.810;2023-04-21T12:10:43;13.30;89.00
1700;DHT22;847;48.058;7.810;2023-04-21T12:13:10;13.40;87.40
1700;DHT22;847;48.058;7.810;2023-04-21T12:15:37;13.40;87.20
1700;DHT22;847;48.058;7.810;2023-04-21T12:18:11;13.60;88.80
1700;DHT22;847;48.058;7.810;2023-04-21T12:20:48;13.70;87.20
1700;DHT22;847;48.058;7.810;2023-04-21T12:23:15;13.60;86.70
1700;DHT22;847;48.058;7.810;2023-04-21T12:25:42;13.60;87.50
1700;DHT22;847;48.058;7.810;2023-04-21T12:28:10;13.70;87.00
1700;DHT22;847;48.058;7.810;2023-04-21T12:30:37;13.70;86.40
1700;DHT22;847;48.058;7.810;2023-04-21T12:33:03;13.70;85.70
1700;DHT22;847;48.058;7.810;2023-04-21T12:35:30;13.80;85.50
1700;DHT22;847;48.058;7.810;2023-04-21T12:37:59;13.80;85.80
1700;DHT22;847;48.058;7.810;2023-04-21T12:40:26;13.80;85.60
1700;DHT22;847;48.058;7.810;2023-04-21T12:42:52;13.90;85.60
1700;DHT22;847;48.058;7.810;2023-04-21T12:45:19;13.90;85.80
1700;DHT22;847;48.058;7.810;2023-04-21T12:47:46;13.80;85.20
1700;DHT22;847;48.058;7.810;2023-04-21T12:50:13;13.90;85.80
1700;DHT22;847;48.058;7.810;2023-04-21T12:52:41;13.90;85.30
1700;DHT22;847;48.058;7.810;2023-04-21T12:55:09;13.90;86.20
1700;DHT22;847;48.058;7.810;2023-04-21T12:57:37;13.90;85.10
1700;DHT22;847;48.058;7.810;2023-04-21T13:00:05;14.00;85.90
1700;DHT22;847;48.058;7.810;2023-04-21T13:02:33;14.00;85.80
1700;DHT22;847;48.058;7.810;2023-04-21T13:05:01;14.00;86.10
1700;DHT22;847;48.058;7.810;2023-04-21T13:07:29;13.90;85.70
1700;DHT22;847;48.058;7.810;2023-04-21T13:09:56;13.90;85.60
1700;DHT22;847;48.058;7.810;2023-04-21T13:12:24;13.90;83.90
1700;DHT22;847;48.058;7.810;2023-04-21T13:14:51;13.90;83.00
1700;DHT22;847;48.058;7.810;2023-04-21T13:17:18;13.80;85.00
1700;DHT22;847;48.058;7.810;2023-04-21T13:19:44;13.80;84.20
1700;DHT22;847;48.058;7.810;2023-04-21T13:22:12;13.80;85.00
1700;DHT22;847;48.058;7.810;2023-04-21T13:24:39;13.80;85.20
1700;DHT22;847;48.058;7.810;2023-04-21T13:27:06;13.80;84.20
1700;DHT22;847;48.058;7.810;2023-04-21T13:29:34;13.80;84.30
1700;DHT22;847;48.058;7.810;2023-04-21T13:32:04;13.80;84.20
1700;DHT22;847;48.058;7.810;2023-04-21T13:34:32;13.90;83.40
1700;DHT22;847;48.058;7.810;2023-04-21T13:36:59;14.00;82.40
1700;DHT22;847;48.058;7.810;2023-04-21T13:39:26;14.00;83.10
1700;DHT22;847;48.058;7.810;2023-04-21T13:41:53;14.00;84.50
1700;DHT22;847;48.058;7.810;2023-04-21T13:44:20;14.00;82.90
1700;DHT22;847;48.058;7.810;2023-04-21T13:46:49;14.40;85.40
1700;DHT22;847;48.058;7.810;2023-04-21T13:49:18;15.30;83.00
1700;DHT22;847;48.058;7.810;2023-04-21T13:51:45;16.00;79.60
1700;DHT22;847;48.058;7.810;2023-04-21T13:54:11;16.70;77.50
1700;DHT22;847;48.058;7.810;2023-04-21T13:56:38;17.10;76.90
1700;DHT22;847;48.058;7.810;2023-04-21T13:59:05;17.40;74.20
1700;DHT22;847;48.058;7.810;2023-04-21T14:01:32;17.80;74.10
1700;DHT22;847;48.058;7.810;2023-04-21T14:04:00;18.00;74.00
1700;DHT22;847;48.058;7.810;2023-04-21T14:06:27;18.40;74.00
1700;DHT22;847;48.058;7.810;2023-04-21T14:08:53;18.60;73.50
1700;DHT22;847;48.058;7.810;2023-04-21T14:11:20;18.80;71.40
1700;DHT22;847;48.058;7.810;2023-04-21T14:13:47;18.70;71.70
1700;DHT22;847;48.058;7.810;2023-04-21T14:16:14;18.10;70.80
1700;DHT22;847;48.058;7.810;2023-04-21T14:18:41;17.70;72.00
1700;DHT22;847;48.058;7.810;2023-04-21T14:21:11;17.90;74.40
1700;DHT22;847;48.058;7.810;2023-04-21T14:23:37;18.10;72.80
1700;DHT22;847;48.058;7.810;2023-04-21T14:26:04;18.50;73.30
1700;DHT22;847;48.058;7.810;2023-04-21T14:28:31;18.60;73.20
1700;DHT22;847;48.058;7.810;2023-04-21T14:30:58;18.40;73.10
1700;DHT22;847;48.058;7.810;2023-04-21T14:33:25;18.50;73.30
1700;DHT22;847;48.058;7.810;2023-04-21T14:35:53;18.20;72.40
1700;DHT22;847;48.058;7.810;2023-04-21T14:38:21;18.50;73.80
1700;DHT22;847;48.058;7.810;2023-04-21T14:40:48;18.90;72.60
1700;DHT22;847;48.058;7.810;2023-04-21T14:43:18;19.10;71.40
1700;DHT22;847;48.058;7.810;2023-04-21T14:45:45;19.20;71.40
1700;DHT22;847;48.058;7.810;2023-04-21T14:48:12;19.00;70.40
1700;DHT22;847;48.058;7.810;2023-04-21T14:50:39;18.50;71.40
1700;DHT22;847;48.058;7.810;2023-04-21T14:53:06;18.10;73.10
1700;DHT22;847;48.058;7.810;2023-04-21T14:55:34;17.90;73.50
1700;DHT22;847;48.058;7.810;2023-04-21T14:58:01;17.80;74.60
1700;DHT22;847;48.058;7.810;2023-04-21T15:00:28;17.80;74.60
1700;DHT22;847;48.058;7.810;2023-04-21T15:02:56;17.80;75.00
1700;DHT22;847;48.058;7.810;2023-04-21T15:05:23;17.90;75.70
1700;DHT22;847;48.058;7.810;2023-04-21T15:07:50;18.20;75.40
1700;DHT22;847;48.058;7.810;2023-04-21T15:10:17;18.20;75.10
1700;DHT22;847;48.058;7.810;2023-04-21T15:12:45;18.10;74.90
1700;DHT22;847;48.058;7.810;2023-04-21T15:15:12;18.00;75.40
1700;DHT22;847;48.058;7.810;2023-04-21T15:17:38;17.90;75.60
1700;DHT22;847;48.058;7.810;2023-04-21T15:20:06;17.90;76.00
1700;DHT22;847;48.058;7.810;2023-04-21T15:22:34;17.90;77.10
1700;DHT22;847;48.058;7.810;2023-04-21T15:25:01;17.80;76.90
1700;DHT22;847;48.058;7.810;2023-04-21T15:27:28;17.80;76.10
1700;DHT22;847;48.058;7.810;2023-04-21T15:29:56;17.70;75.70
1700;DHT22;847;48.058;7.810;2023-04-21T15:32:23;17.60;75.80
1700;DHT22;847;48.058;7.810;2023-04-21T15:34:50;17.80;76.10
1700;DHT22;847;48.058;7.810;2023-04-21T15:37:16;17.80;74.40
1700;DHT22;847;48.058;7.810;2023-04-21T15:39:44;17.90;75.20
1700;DHT22;847;48.058;7.810;2023-04-21T15:42:11;18.20;75.20
1700;DHT22;847;48.058;7.810;2023-04-21T15:44:38;17.90;73.40
1700;DHT22;847;48.058;7.810;2023-04-21T15:47:06;17.50;75.30
1700;DHT22;847;48.058;7.810;2023-04-21T15:49:33;17.20;76.20
1700;DHT22;847;48.058;7.810;2023-04-21T15:52:01;17.00;77.30
1700;DHT22;847;48.058;7.810;2023-04-21T15:54:28;17.20;78.00
1700;DHT22;847;48.058;7.810;2023-04-21T15:56:55;17.70;77.30
1700;DHT22;847;48.058;7.810;2023-04-21T15:59:23;17.70;74.90
1700;DHT22;847;48.058;7.810;2023-04-21T16:01:50;17.60;75.10
1700;DHT22;847;48.058;7.810;2023-04-21T16:04:19;17.40;76.10
1700;DHT22;847;48.058;7.810;2023-04-21T16:06:45;17.20;75.50
1700;DHT22;847;48.058;7.810;2023-04-21T16:09:12;17.20;76.20
1700;DHT22;847;48.058;7.810;2023-04-21T16:11:39;17.30;76.00
1700;DHT22;847;48.058;7.810;2023-04-21T16:14:06;18.00;76.10
1700;DHT22;847;48.058;7.810;2023-04-21T16:16:32;18.50;74.20
1700;DHT22;847;48.058;7.810;2023-04-21T16:19:00;18.40;73.90
1700;DHT22;847;48.058;7.810;2023-04-21T16:21:29;18.70;73.80
1700;DHT22;847;48.058;7.810;2023-04-21T16:23:56;18.70;73.40
1700;DHT22;847;48.058;7.810;2023-04-21T16:26:23;18.90;74.30
1700;DHT22;847;48.058;7.810;2023-04-21T16:28:50;18.70;73.10
1700;DHT22;847;48.058;7.810;2023-04-21T16:31:18;18.50;73.50